EW1052 Firenze IT current weather conditions

sailwx.info

Wind from 186 at 5 knots gusting 10

Air temperature 12.8° C
Dewpoint 8.5° C

Last reported at 2020-Jan-28 11:45 UTC.
Time now 2020-Jan-28 12:58 UTC

Location: N 43°42' E 011°21'.
View on Google Maps.

See reports from other nearby stations

  
Tides and Currents Weather Stations Pressure Air Temp Water Temp Dewpoint Dewpoint Depression Visibility Wind Speed Wind Dir Waves Ship Positions
date/time (UTC)wind fromknots sea level pressurealtimeterstation pressurevisibilityair tempwater tempwave heightnotes
2020-Jan-28 11:45 186 5 gusting 10 12.8
2020-Jan-28 11:30 264 7 gusting 17 12.8
2020-Jan-28 11:15 242 8 gusting 14 12.8
2020-Jan-28 10:45 164 10 gusting 20 12.2
2020-Jan-28 10:30 150 12 gusting 19 12.2
2020-Jan-28 10:16 193 9 gusting 20 11.7
2020-Jan-28 10:00 161 11 gusting 19 12.2
2020-Jan-28 09:45 188 8 gusting 21 11.7
2020-Jan-28 09:15 229 10 gusting 19 11.7
2020-Jan-28 09:00 211 8 gusting 14 11.7
2020-Jan-28 08:47 187 7 gusting 15 11.1
2020-Jan-28 08:32 208 8 gusting 19 11.1
2020-Jan-28 08:18 210 10 gusting 19 11.1
2020-Jan-28 08:02 207 6 gusting 19 11.1
2020-Jan-28 07:47 208 9 gusting 19 11.1
2020-Jan-28 07:32 208 13 gusting 24 11.1
2020-Jan-28 07:16 219 11 gusting 19 11.1
2020-Jan-28 07:03 191 8 gusting 19 10.6
2020-Jan-28 06:46 197 5 gusting 14 10.6
2020-Jan-28 06:31 186 9 gusting 17 10.6
2020-Jan-28 06:16 158 8 gusting 17 10.0
2020-Jan-28 06:01 155 8 gusting 14 10.0
2020-Jan-28 05:46 163 3 gusting 7 10.0
2020-Jan-28 05:31 162 2 gusting 6 10.0
2020-Jan-28 05:16 156 3 gusting 6 10.0
2020-Jan-28 05:02 155 3 gusting 9 10.0
2020-Jan-28 04:46 166 4 gusting 9 10.0
2020-Jan-28 04:31 172 5 gusting 11 10.0
2020-Jan-28 04:16 147 4 gusting 12 10.0
2020-Jan-28 04:01 204 6 gusting 10 9.4
2020-Jan-28 03:45 184 5 gusting 11 10.0
2020-Jan-28 03:32 207 5 gusting 11 10.0
2020-Jan-28 03:16 183 6 gusting 11 9.4
2020-Jan-28 03:01 183 5 gusting 9 9.4
2020-Jan-28 02:45 212 3 gusting 7 9.4
2020-Jan-28 02:32 211 6 gusting 13 8.9
2020-Jan-28 02:15 162 2 gusting 7 8.9
2020-Jan-28 02:00 196 5 gusting 13 8.9
2020-Jan-28 01:46 156 6 gusting 13 8.9
2020-Jan-28 01:30 172 5 gusting 12 8.9
2020-Jan-28 01:15 165 5 gusting 11 8.9
2020-Jan-28 01:00 188 5 gusting 8 8.9
2020-Jan-28 00:46 188 6 gusting 13 8.9
2020-Jan-28 00:30 172 5 gusting 10 8.9
2020-Jan-28 00:15 210 5 gusting 10 8.9
2020-Jan-28 00:00 142 5 gusting 12 8.9
2020-Jan-27 23:45 212 6 gusting 13 8.9
2020-Jan-27 23:30 184 5 gusting 12 8.9
2020-Jan-27 23:15 205 5 gusting 12 9.4
2020-Jan-27 23:00 208 6 gusting 10 9.4
2020-Jan-27 22:45 228 2 gusting 8 9.4
2020-Jan-27 22:30 195 5 gusting 9 9.4
2020-Jan-27 22:15 190 4 gusting 8 9.4
2020-Jan-27 22:00 169 5 gusting 8 9.4
2020-Jan-27 21:45 195 4 gusting 8 9.4
2020-Jan-27 21:30 224 3 gusting 9 9.4
2020-Jan-27 21:15 187 3 gusting 9 9.4
2020-Jan-27 21:00 184 4 gusting 8 9.4
2020-Jan-27 20:46 204 4 gusting 7 9.4
2020-Jan-27 20:30 188 3 gusting 9 9.4
2020-Jan-27 20:15 199 4 gusting 8 9.4
2020-Jan-27 20:00 193 3 gusting 8 9.4
2020-Jan-27 19:45 201 3 gusting 10 9.4
2020-Jan-27 19:30 197 3 gusting 7 9.4
2020-Jan-27 19:16 183 3 gusting 6 9.4
2020-Jan-27 19:00 173 3 gusting 7 9.4
2020-Jan-27 18:45 176 2 gusting 8 8.9
2020-Jan-27 18:30 161 0 gusting 2 8.9
2020-Jan-27 18:15 176 0 gusting 5 8.9
2020-Jan-27 18:00 205 0 gusting 4 8.9
2020-Jan-27 17:33 150 1 gusting 3 8.9
2020-Jan-27 17:17 130 8.9
2020-Jan-27 17:01 054 8.9
2020-Jan-27 16:47 041 0 gusting 3 8.9
2020-Jan-27 16:31 029 8.9
2020-Jan-27 16:15 172 9.4
2020-Jan-27 16:00 183 0 gusting 4 9.4
2020-Jan-27 15:45 205 0 gusting 3 9.4
2020-Jan-27 15:32 186 1 gusting 5 9.4
2020-Jan-27 15:17 197 0 gusting 4 9.4
2020-Jan-27 15:03 154 9.4
2020-Jan-27 14:46 203 2 gusting 4 9.4
2020-Jan-27 14:31 183 3 gusting 7 10.0
2020-Jan-27 14:16 193 1 gusting 5 10.0
2020-Jan-27 14:02 219 0 gusting 3 10.0
2020-Jan-27 13:46 159 1 gusting 4 10.0
2020-Jan-27 13:32 205 2 gusting 6 10.0
2020-Jan-27 13:17 204 1 gusting 5 9.4
2020-Jan-27 13:03 153 1 gusting 4 9.4
2020-Jan-27 12:47 158 0 gusting 3 9.4
2020-Jan-27 12:33 184 9.4
2020-Jan-27 12:17 200 0 gusting 2 9.4
2020-Jan-27 12:03 301 0 gusting 1 9.4
2020-Jan-27 11:46 307 10.6
2020-Jan-27 11:32 228 10.6
2020-Jan-27 11:15 314 9.4
2020-Jan-27 11:00 315 9.4
2020-Jan-27 10:45 310 9.4
2020-Jan-27 10:30 312 9.4
2020-Jan-27 10:17 191 9.4
2020-Jan-27 10:01 264 9.4
2020-Jan-27 09:47 204 9.4
2020-Jan-27 09:31 203 8.9
2020-Jan-27 09:16 231 8.9
2020-Jan-27 09:02 210 8.3
2020-Jan-27 08:46 310 8.3
2020-Jan-27 08:30 264 8.3
2020-Jan-27 08:16 155 0 gusting 2 7.8
2020-Jan-27 08:01 110 7.8
2020-Jan-27 07:47 109 7.8
2020-Jan-27 07:33 148 7.8
2020-Jan-27 07:16 148 0 gusting 1 7.2
2020-Jan-27 07:01 151 7.2
2020-Jan-27 06:46 200 7.8
2020-Jan-27 06:32 177 7.8
2020-Jan-27 06:16 165 0 gusting 1 7.8
2020-Jan-27 06:02 150 7.8
2020-Jan-27 05:46 074 1 gusting 2 7.2
2020-Jan-27 05:30 305 7.2
2020-Jan-27 05:16 356 7.8
2020-Jan-27 05:01 358 0 gusting 3 7.8
2020-Jan-27 04:47 221 8.3
2020-Jan-27 04:31 169 8.3
2020-Jan-27 04:16 145 8.3
2020-Jan-27 04:02 165 8.3
2020-Jan-27 03:46 131 8.3
2020-Jan-27 03:30 131 8.3
2020-Jan-27 03:15 147 7.8
2020-Jan-27 03:01 311 7.8
2020-Jan-27 02:46 046 7.8
2020-Jan-27 02:30 039 0 gusting 1 7.8
2020-Jan-27 02:16 032 0 gusting 2 7.8
2020-Jan-27 02:01 037 7.8
2020-Jan-27 01:46 252 8.3
2020-Jan-27 01:31 252 8.3
2020-Jan-27 01:16 251 8.3
2020-Jan-27 01:01 251 8.3
2020-Jan-27 00:46 219 8.3
2020-Jan-27 00:31 190 8.3
2020-Jan-27 00:16 214 0 gusting 3 8.3
2020-Jan-27 00:01 204 8.3
2020-Jan-26 23:45 204 8.3
2020-Jan-26 23:31 183 0 gusting 2 8.3
2020-Jan-26 23:16 155 1 gusting 3 7.8
2020-Jan-26 23:01 159 0 gusting 2 7.8
2020-Jan-26 22:46 197 1 gusting 3 8.3
2020-Jan-26 22:30 186 0 gusting 2 8.3
2020-Jan-26 22:16 191 0 gusting 2 8.3
2020-Jan-26 22:01 173 0 gusting 5 8.3
2020-Jan-26 21:46 221 1 gusting 3 8.3
2020-Jan-26 21:32 176 0 gusting 2 8.9
2020-Jan-26 21:15 205 0 gusting 1 8.9
2020-Jan-26 21:01 163 8.9
2020-Jan-26 20:46 186 8.9
2020-Jan-26 20:30 187 0 gusting 2 8.9
2020-Jan-26 20:16 150 0 gusting 2 8.9
2020-Jan-26 20:02 171 8.9
2020-Jan-26 19:45 163 0 gusting 2 8.9
2020-Jan-26 19:30 160 0 gusting 2 9.4
2020-Jan-26 19:16 168 0 gusting 2 9.4
2020-Jan-26 19:00 194 0 gusting 2 9.4
2020-Jan-26 18:45 165 9.4
2020-Jan-26 18:30 170 0 gusting 1 9.4
2020-Jan-26 18:15 157 0 gusting 1 9.4
2020-Jan-26 18:00 175 9.4
2020-Jan-26 17:45 236 9.4
2020-Jan-26 17:30 239 10.0
2020-Jan-26 17:16 037 10.6
2020-Jan-26 17:00 042 10.6
2020-Jan-26 16:46 056 10.6
2020-Jan-26 16:30 027 10.6
2020-Jan-26 16:15 359 10.6
2020-Jan-26 16:01 025 10.6
2020-Jan-26 15:45 343 0 gusting 1 11.1
2020-Jan-26 15:30 301 11.7
2020-Jan-26 15:15 281 12.2
2020-Jan-26 15:01 172 12.2
2020-Jan-26 14:46 228 12.2
2020-Jan-26 14:30 248 12.2
2020-Jan-26 14:15 285 0 gusting 4 11.7
2020-Jan-26 14:00 326 11.7
2020-Jan-26 13:45 324 11.7
2020-Jan-26 13:30 309 11.7
2020-Jan-26 13:16 338 11.1
2020-Jan-26 13:00 302 0 gusting 2 11.1
2020-Jan-26 12:45 023 0 gusting 2 10.6
2020-Jan-26 12:30 358 0 gusting 2 10.6
2020-Jan-26 12:15 328 0 gusting 3 10.6
2020-Jan-26 12:03 331 10.6